This is the latest recevied weather packets stored in our database for station/object NC4M. If no packets are shown the sender has not sent any weather packets the latest 10 day(s).
| Time | Temp. | Humidity | Pressure | Rain* | Wind** | Luminosity | Snow |
|---|---|---|---|---|---|---|---|
| 1777603232 | 13.33° C | 72% | 1016.1 hPa | 0 mm | - | 0 W/m² | - |
| 1777602928 | 13.33° C | 71% | 1016 hPa | 0 mm | - | 0 W/m² | - |
| 1777602624 | 13.33° C | 63% | 1016 hPa | 0 mm | - | 0 W/m² | - |
| 1777602319 | 13.33° C | 66% | 1015.9 hPa | 0 mm | - | 0 W/m² | - |
| 1777602015 | 13.33° C | 68% | 1015.8 hPa | 0 mm | - | 0 W/m² | - |
| 1777601406 | 13.33° C | 68% | 1015.8 hPa | 0 mm | - | 0 W/m² | - |
| 1777600800 | 13.33° C | 59% | 1015.7 hPa | 0 mm | - | 0 W/m² | - |
| 1777586237 | 20.56° C | 33% | 1015.6 hPa | 0 mm | - | 300 W/m² | - |
| 1777585020 | 20.56° C | 29% | 1015.7 hPa | 0 mm | - | 464 W/m² | - |
| 1777583506 | 21.67° C | 34% | 1015.9 hPa | 0 mm | - | 455 W/m² | - |
| 1777582598 | 20.56° C | 35% | 1016.3 hPa | 0 mm | - | 422 W/m² | - |
| 1777581991 | 18.89° C | 32% | 1016.4 hPa | 0 mm | - | 518 W/m² | - |
| 1777581686 | 18.89° C | 33% | 1016.5 hPa | 0 mm | - | 349 W/m² | - |
| 1777580779 | 19.44° C | 42% | 1016.7 hPa | 0 mm | - | 271 W/m² | - |
| 1777580171 | 20° C | 37% | 1016.6 hPa | 0 mm | - | 293 W/m² | - |
| 1777579869 | 20° C | 32% | 1016.7 hPa | 0 mm | - | 282 W/m² | - |
| 1777579569 | 20.56° C | 34% | 1016.9 hPa | 0 mm | - | 298 W/m² | - |
| 1777579268 | 20° C | 35% | 1016.9 hPa | 0 mm | - | 292 W/m² | - |
| 1777578659 | 19.44° C | 33% | 1017 hPa | 0 mm | - | 252 W/m² | - |
| 1777577749 | 19.44° C | 29% | 1017.5 hPa | 0 mm | - | 102 W/m² | - |
| 1777577446 | 18.89° C | 36% | 1017.4 hPa | 0 mm | - | 137 W/m² | - |
| 1777577143 | 18.89° C | 27% | 1017.3 hPa | 0 mm | - | 103 W/m² | - |
| 1777576839 | 18.89° C | 36% | 1017.4 hPa | 0 mm | - | 329 W/m² | - |
| 1777576235 | 18.89° C | 35% | 1017.6 hPa | 0 mm | - | 659 W/m² | - |
| 1777575931 | 19.44° C | 29% | 1017.6 hPa | 0 mm | - | 580 W/m² | - |
* Rain latest hour (hover to see other rain measurements)
** Current wind speed in m/s (hover to see current wind gust speed)